Urb Verdemar, Puerto Rico
Current Conditions -  °F | °C
As of 6:53 PM on Tuesday 25 Nov 2014 (Local Time) from TJNR Reporting Station
Few Clouds Few Clouds  
Wind Chill: 80°   Ceiling: Unl
Heat Index: 84°   Visibility: 10mi
Dew Point: 71°   Wind: 12mph
Humidity: 74%   Direction: 80°E
Pressure: 30.04"   Gusts: NA
Location:  18.1684°N, 65.7486°W
Report Text: TJNR 252253Z AUTO 08010KT 10SM FEW028 27/22 A3004 RMK AO2 SLP171 T02670217 $
Loading
Personal Weather Stations






























Interactive Weather Map New forecast layout! Learn more

10-Day Weather Forecast

Advertisements
Track Severe Weather on mobile